createdAt,value
2022-11-19T15:10:06.015Z,94319.88
2022-11-19T15:12:47.242Z,94286.88
2022-11-19T15:15:38.746Z,94314.97
2022-11-19T15:18:31.115Z,94298.72
2022-11-19T15:21:21.818Z,94307.53
2022-11-19T15:24:05.166Z,94323.56
2022-11-19T15:26:38.125Z,94322.63
2022-11-19T15:29:22.216Z,94310.59
2022-11-19T15:32:17.067Z,94320.47
2022-11-19T15:35:13.958Z,94322.56
2022-11-19T15:37:48.845Z,94339.66
2022-11-19T15:40:21.206Z,94336.50
2022-11-19T15:43:00.275Z,94341.03
2022-11-19T15:45:34.922Z,94334.38
2022-11-19T15:48:15.359Z,94333.13
2022-11-19T15:50:45.669Z,94320.09
2022-11-19T15:53:20.085Z,94321.75
2022-11-19T15:55:56.316Z,94328.88
2022-11-19T15:58:35.712Z,94336.09
2022-11-19T16:01:06.025Z,94338.22
2022-11-19T16:03:35.235Z,94346.72
2022-11-19T16:06:09.266Z,94339.00
2022-11-19T16:08:39.532Z,94340.06
2022-11-19T16:11:26.485Z,94339.09
2022-11-19T16:14:14.610Z,94343.09
2022-11-19T16:17:01.393Z,94340.19
2022-11-19T16:19:31.186Z,94338.66
2022-11-19T16:22:05.106Z,94346.13
2022-11-19T16:24:52.123Z,94348.34
2022-11-19T16:27:23.961Z,94342.47
2022-11-19T16:29:54.832Z,94349.94
2022-11-19T16:32:27.496Z,94348.19
2022-11-19T16:35:15.517Z,94340.44
2022-11-19T16:37:51.460Z,94343.41
2022-11-19T16:40:23.868Z,94341.81
2022-11-19T16:42:55.200Z,94351.94
2022-11-19T16:45:43.738Z,94348.78
2022-11-19T16:48:56.780Z,94354.38
2022-11-19T16:51:53.793Z,94354.91
2022-11-19T16:54:46.003Z,94367.72
2022-11-19T16:57:17.320Z,94367.94
2022-11-19T16:59:49.995Z,94376.47
2022-11-19T17:02:23.708Z,94372.50
2022-11-19T17:04:55.229Z,94357.59
2022-11-19T17:07:27.643Z,94358.97
2022-11-19T17:10:30.661Z,94368.53
2022-11-19T17:13:03.088Z,94359.25
2022-11-19T17:15:38.802Z,94343.56
2022-11-19T17:18:20.709Z,94345.44
2022-11-19T17:20:57.645Z,94359.28
2022-11-19T17:26:22.621Z,94358.47
2022-11-19T17:28:56.642Z,94350.75
2022-11-19T17:31:27.626Z,94366.19
2022-11-19T17:34:09.716Z,94377.88
2022-11-19T17:36:48.724Z,94356.84
2022-11-19T17:39:23.949Z,94352.63
2022-11-19T17:42:13.610Z,94352.34
2022-11-19T17:44:46.657Z,94356.59
2022-11-19T17:47:22.895Z,94345.41
2022-11-19T17:49:57.458Z,94340.63
2022-11-19T17:52:28.177Z,94336.91
2022-11-19T17:55:00.201Z,94343.28
2022-11-19T17:57:29.386Z,94330.25
2022-11-19T17:59:58.679Z,94327.81
2022-11-19T18:02:28.098Z,94333.41
2022-11-19T18:04:58.638Z,94330.25
2022-11-19T18:07:27.850Z,94330.28
2022-11-19T18:09:57.428Z,94323.88
2022-11-19T18:12:27.353Z,94325.22
2022-11-19T18:15:00.829Z,94322.81
2022-11-19T18:17:33.036Z,94303.44
2022-11-19T18:20:03.605Z,94317.78
2022-11-19T18:22:33.238Z,94312.22
2022-11-19T18:25:02.244Z,94300.28
2022-11-19T18:27:32.498Z,94288.56
2022-11-19T18:30:01.473Z,94307.47
2022-11-19T18:32:32.277Z,94310.41
2022-11-19T18:35:03.266Z,94317.56
2022-11-19T18:37:32.806Z,94319.69
2022-11-19T18:40:01.951Z,94304.53
2022-11-19T18:42:32.604Z,94306.41
2022-11-19T18:45:00.859Z,94313.03
2022-11-19T18:47:30.663Z,94321.28
2022-11-19T18:50:04.379Z,94301.84
2022-11-19T18:52:33.544Z,94314.59
2022-11-19T18:55:02.714Z,94327.38
2022-11-19T18:57:44.444Z,94313.00
2022-11-19T19:00:15.017Z,94325.78
2022-11-19T19:02:44.113Z,94312.22
2022-11-19T19:05:14.766Z,94321.78
2022-11-19T19:07:44.230Z,94329.50
2022-11-19T19:10:14.444Z,94320.22
2022-11-19T19:12:42.818Z,94330.84
2022-11-19T19:15:12.791Z,94326.31
2022-11-19T19:17:41.898Z,94334.53
2022-11-19T19:20:12.191Z,94335.31
2022-11-19T19:22:42.937Z,94331.06
2022-11-19T19:25:12.199Z,94330.78
2022-11-19T19:27:41.873Z,94335.28
2022-11-19T19:30:12.321Z,94329.47
2022-11-19T19:32:41.631Z,94337.94
2022-11-19T19:35:11.562Z,94327.84
2022-11-19T19:37:43.162Z,94323.84
2022-11-19T19:40:13.519Z,94307.13
2022-11-19T19:42:42.807Z,94309.22
2022-11-19T19:45:12.960Z,94309.00
2022-11-19T19:47:42.656Z,94299.94
2022-11-19T19:50:12.746Z,94309.22
2022-11-19T19:52:43.854Z,94301.56
2022-11-19T19:55:13.124Z,94321.19
2022-11-19T19:57:43.552Z,94314.31
2022-11-19T20:00:24.048Z,94317.22
2022-11-19T20:02:53.151Z,94306.06
2022-11-19T20:05:22.070Z,94313.53
2022-11-19T20:07:52.979Z,94316.69
2022-11-19T20:10:24.393Z,94307.16
2022-11-19T20:13:14.155Z,94313.00
2022-11-19T20:15:45.605Z,94309.28
2022-11-19T20:18:15.125Z,94307.13
2022-11-19T20:20:52.487Z,94298.13
2022-11-19T20:23:23.488Z,94279.00
2022-11-19T20:25:53.106Z,94295.47
2022-11-19T20:28:22.320Z,94284.31
2022-11-19T20:30:51.959Z,94288.56
2022-11-19T20:33:21.950Z,94276.59
2022-11-19T20:35:53.216Z,94276.88
2022-11-19T20:38:24.521Z,94274.75
2022-11-19T20:40:58.909Z,94277.41
2022-11-19T20:43:52.400Z,94267.03
2022-11-19T20:46:23.549Z,94258.81
2022-11-19T20:48:52.733Z,94262.78
2022-11-19T20:51:21.875Z,94260.66
2022-11-19T20:53:52.417Z,94249.22
2022-11-19T20:56:21.634Z,94258.81
2022-11-19T20:58:50.961Z,94252.16
2022-11-19T21:01:20.344Z,94261.75
2022-11-19T21:03:49.481Z,94255.34
2022-11-19T21:06:19.393Z,94251.59
2022-11-19T21:08:49.208Z,94247.06
2022-11-19T21:11:30.189Z,94259.28
2022-11-19T21:13:59.481Z,94247.53
2022-11-19T21:16:29.997Z,94237.69
2022-11-19T21:18:59.401Z,94243.81
2022-11-19T21:21:29.762Z,94241.41
2022-11-19T21:23:59.031Z,94241.41
2022-11-19T21:26:30.962Z,94252.53
2022-11-19T21:29:00.918Z,94246.16
2022-11-19T21:31:40.716Z,94250.16
2022-11-19T21:34:11.167Z,94241.91
2022-11-19T21:36:42.164Z,94242.97
2022-11-19T21:39:12.644Z,94237.91
2022-11-19T21:41:43.778Z,94246.41
2022-11-19T21:44:16.805Z,94247.75
2022-11-19T21:46:51.226Z,94251.44
2022-11-19T21:49:20.821Z,94254.41
2022-11-19T21:51:50.553Z,94250.41
2022-11-19T21:54:19.568Z,94244.94
2022-11-19T21:56:50.110Z,94241.34
2022-11-19T21:59:19.422Z,94235.91
2022-11-19T22:01:54.397Z,94237.97
2022-11-19T22:04:24.259Z,94238.88
2022-11-19T22:06:53.500Z,94225.38
2022-11-19T22:09:22.901Z,94224.09
2022-11-19T22:11:53.636Z,94221.34
2022-11-19T22:14:24.100Z,94232.25
2022-11-19T22:16:54.764Z,94217.09
2022-11-19T22:19:23.945Z,94230.72
2022-11-19T22:21:52.940Z,94222.31
2022-11-19T22:27:09.994Z,94235.16
2022-11-19T22:29:39.065Z,94229.19
2022-11-19T22:32:08.152Z,94228.69
2022-11-19T22:34:37.559Z,94238.78
2022-11-19T22:37:06.685Z,94236.91
2022-11-19T22:39:35.748Z,94226.44
2022-11-19T22:42:07.962Z,94219.22
2022-11-19T22:44:38.533Z,94235.38
2022-11-19T22:47:07.609Z,94239.50
2022-11-19T22:49:36.739Z,94242.59
2022-11-19T22:52:06.046Z,94228.56
2022-11-19T22:54:38.753Z,94223.59
2022-11-19T22:57:10.661Z,94229.38
2022-11-19T22:59:41.105Z,94226.66
2022-11-19T23:02:13.241Z,94238.19
2022-11-19T23:04:42.278Z,94239.84
2022-11-19T23:07:11.255Z,94231.97
2022-11-19T23:09:40.281Z,94239.31
2022-11-19T23:12:28.390Z,94226.22
2022-11-19T23:14:59.101Z,94229.31
2022-11-19T23:17:28.221Z,94219.44
2022-11-19T23:20:00.369Z,94220.31
2022-11-19T23:22:33.389Z,94215.41
2022-11-19T23:25:02.501Z,94218.75
2022-11-19T23:27:32.059Z,94200.22
2022-11-19T23:30:02.848Z,94202.38
2022-11-19T23:32:31.970Z,94200.47
2022-11-19T23:35:01.118Z,94197.63
2022-11-19T23:37:31.865Z,94204.47
2022-11-19T23:40:01.410Z,94197.34
2022-11-19T23:42:31.949Z,94196.78
2022-11-19T23:45:02.578Z,94198.31
2022-11-19T23:47:32.256Z,94194.16
2022-11-19T23:50:01.304Z,94195.34
2022-11-19T23:52:32.198Z,94188.75
2022-11-19T23:55:03.915Z,94185.06
2022-11-19T23:57:33.020Z,94201.78
